Bluefin — WDE9397 — position and weather

sailwx.info

Track history (hours):
 
Tides and Currents Weather Stations Pressure Air Temp Water Temp Dewpoint Dewpoint Depression Visibility Wind Speed Wind Dir Waves Ship Positions

Bluefin

Owner: Penn Maritime Inc., SEATTLE, WA. More information available from US FCC via Universal Licensing System and Coast Guard Vessel Documentation Center.

Last reported at 2015-Jul-03 10:33 UTC. Time now 2015-Jul-04 06:59 UTC.
Position N 34°25' W 076°12'.

Length 166 m; draft 6.8 m.

Type: Towing. MMSI: 367416750.

Date/timePositionNaut miles runAvg speedWind from/ knotsBaromVisibWave heightAir tempDewpointWater temp
2015-Jul-03 10:33N 34°25' W 076°12'237 9.9
2015-Jul-02 10:33N 32°10' W 080°05'13 9.5
2015-Jul-02 09:12N 32°02' W 080°17'6 9.0
2015-Jul-02 08:33N 32°00' W 080°24'9 9.4
2015-Jul-02 07:33N 31°59' W 080°35'9 9.4
2015-Jul-02 06:33N 31°59' W 080°46'10 9.7
2015-Jul-02 05:33N 32°03' W 080°56'9 9.0
2015-Jul-02 04:33N 32°06' W 081°06'0 0.3
2015-Jul-02 03:33N 32°06' W 081°07'0 0.0
2015-Jul-02 02:33N 32°06' W 081°07'0 0.0
2015-Jul-02 01:33N 32°06' W 081°07'0 0.0
2015-Jul-02 00:33N 32°06' W 081°07'0 0.0
2015-Jul-01 23:33N 32°06' W 081°07'0 0.0
2015-Jul-01 22:33N 32°06' W 081°07'0 0.0
2015-Jul-01 21:33N 32°06' W 081°07'0 0.0
2015-Jul-01 20:33N 32°06' W 081°07'0 0.0
2015-Jul-01 19:33N 32°06' W 081°07'0 0.0
2015-Jul-01 18:33N 32°06' W 081°07'0 0.0
2015-Jul-01 17:33N 32°06' W 081°07'0 0.0
2015-Jul-01 16:33N 32°06' W 081°07'0 0.0
2015-Jul-01 15:33N 32°06' W 081°07'0 0.0
2015-Jul-01 14:33N 32°06' W 081°07'0 0.0
2015-Jul-01 13:33N 32°06' W 081°07'0 0.0
2015-Jul-01 12:33N 32°06' W 081°07'0 0.0
2015-Jul-01 11:33N 32°06' W 081°07'0 0.0
2015-Jul-01 10:33N 32°06' W 081°07'0 0.0
2015-Jul-01 09:33N 32°06' W 081°07'0 0.0
2015-Jul-01 08:33N 32°06' W 081°07'0 0.0
2015-Jul-01 07:33N 32°06' W 081°07'4 4.4
2015-Jul-01 06:33N 32°05' W 081°01'8 7.6
2015-Jul-01 05:33N 32°02' W 080°53'8 7.8
2015-Jul-01 04:33N 31°59' W 080°45'66 2.7
2015-Jun-30 04:29N 32°50' W 079°56'0 0.0
2015-Jun-29 13:17N 32°50' W 079°56'0 0.0
2015-Jun-29 12:32N 32°50' W 079°56'0 0.0
2015-Jun-29 11:18N 32°50' W 079°56'0 0.0
2015-Jun-29 10:33N 32°50' W 079°56'  
2015-Jun-26 10:23N 38°30' W 074°46'8 9.6
2015-Jun-26 09:33N 38°36' W 074°52'9 9.4
2015-Jun-26 08:33N 38°44' W 074°59'9 8.8
2015-Jun-26 07:33N 38°52' W 075°04'8 8.4
2015-Jun-26 06:33N 38°60' W 075°08'3010.0
2015-Jun-26 03:31N 39°24' W 075°30'1010.7
2015-Jun-26 02:32N 39°35' W 075°33'10 9.8
2015-Jun-26 01:33N 39°44' W 075°30'9 9.3
2015-Jun-26 00:33N 39°50' W 075°21'6 5.9
2015-Jun-25 23:34N 39°51' W 075°14'0 0.0
2015-Jun-25 22:30N 39°51' W 075°14'0 0.0
2015-Jun-25 21:31N 39°51' W 075°14'0 0.0
2015-Jun-25 20:31N 39°51' W 075°14'0 0.0
2015-Jun-25 19:33N 39°51' W 075°14'0 0.0
2015-Jun-25 18:34N 39°51' W 075°14'0 0.0
2015-Jun-25 17:34N 39°51' W 075°14'0 0.0
2015-Jun-25 16:30N 39°51' W 075°14'0 0.0
2015-Jun-25 15:31N 39°51' W 075°14'0 0.0
2015-Jun-25 14:31N 39°51' W 075°14'0 0.0
2015-Jun-25 13:34N 39°51' W 075°14'0 0.0
2015-Jun-25 12:34N 39°51' W 075°14'0 0.0
2015-Jun-25 11:33N 39°51' W 075°14'0 0.0
2015-Jun-25 10:33N 39°51' W 075°14'0 0.0
2015-Jun-25 09:33N 39°51' W 075°14'0 0.0
2015-Jun-25 08:33N 39°51' W 075°14'0 0.0
2015-Jun-25 07:33N 39°51' W 075°14'0 0.0
2015-Jun-25 06:33N 39°51' W 075°14'0 0.0
2015-Jun-25 05:34N 39°51' W 075°14'0 0.0
2015-Jun-25 04:33N 39°51' W 075°14'0 0.0
2015-Jun-25 03:33N 39°51' W 075°14'0 0.0
2015-Jun-25 02:34N 39°51' W 075°14'0 0.0
2015-Jun-25 01:33N 39°51' W 075°14'0 0.0
2015-Jun-25 00:34N 39°51' W 075°14'0 0.0
2015-Jun-24 23:34N 39°51' W 075°14'0 0.0
2015-Jun-24 22:34N 39°51' W 075°14'0 0.0
2015-Jun-24 21:34N 39°51' W 075°14'3 2.9
2015-Jun-24 20:34N 39°53' W 075°11'0 0.1
2015-Jun-24 19:34N 39°53' W 075°11'0 0.1
2015-Jun-24 18:34N 39°53' W 075°11'0 0.0
2015-Jun-24 17:34N 39°53' W 075°11'3 2.8
2015-Jun-24 16:34N 39°51' W 075°14'3 2.8
2015-Jun-24 15:33N 39°54' W 075°12'0 0.0
2015-Jun-24 14:34N 39°54' W 075°12'0 0.0
2015-Jun-24 13:34N 39°54' W 075°12'0 0.0
2015-Jun-24 12:34N 39°54' W 075°12'0 0.0
2015-Jun-24 11:34N 39°54' W 075°12'3 2.8
2015-Jun-24 10:34N 39°51' W 075°14'0 0.0
2015-Jun-24 09:34N 39°51' W 075°14'0 0.0
2015-Jun-24 08:34N 39°51' W 075°14'0 0.0
2015-Jun-24 07:34N 39°51' W 075°14'0 0.0
2015-Jun-24 06:34N 39°51' W 075°14'0 0.0
2015-Jun-24 05:34N 39°51' W 075°14'0 0.0
2015-Jun-24 04:34N 39°51' W 075°14'0 0.0
2015-Jun-24 03:34N 39°51' W 075°14'0 0.0
2015-Jun-24 02:34N 39°51' W 075°14'0 0.0
2015-Jun-24 01:34N 39°51' W 075°14'0 0.0
2015-Jun-24 00:34N 39°51' W 075°14'0 0.0
2015-Jun-23 23:34N 39°51' W 075°14'2 2.2
2015-Jun-23 22:34N 39°51' W 075°17'9 8.5
2015-Jun-23 21:33N 39°47' W 075°27'9 8.9
2015-Jun-23 20:34N 39°40' W 075°32'9 9.4
2015-Jun-23 19:34N 39°30' W 075°33'510.9
2015-Jun-23 19:06N 39°25' W 075°31'  
Track history (hours):
 
Tides and Currents Weather Stations Pressure Air Temp Water Temp Dewpoint Dewpoint Depression Visibility Wind Speed Wind Dir Waves Ship Positions

Bluefin

Owner: Penn Maritime Inc., SEATTLE, WA. More information available from US FCC via Universal Licensing System and Coast Guard Vessel Documentation Center.

Last reported at 2015-Jul-03 10:33 UTC. Time now 2015-Jul-04 06:59 UTC.
Position N 34°25' W 076°12'.

Length 166 m; draft 6.8 m.

Type: Towing. MMSI: 367416750.

Date/timePositionNaut miles runAvg speedWind from/ knotsBaromVisibWave heightAir tempDewpointWater temp
2015-Jul-03 10:33N 34°25' W 076°12'237 9.9
2015-Jul-02 10:33N 32°10' W 080°05'13 9.5
2015-Jul-02 09:12N 32°02' W 080°17'6 9.0
2015-Jul-02 08:33N 32°00' W 080°24'9 9.4
2015-Jul-02 07:33N 31°59' W 080°35'9 9.4
2015-Jul-02 06:33N 31°59' W 080°46'10 9.7
2015-Jul-02 05:33N 32°03' W 080°56'9 9.0
2015-Jul-02 04:33N 32°06' W 081°06'0 0.3
2015-Jul-02 03:33N 32°06' W 081°07'0 0.0
2015-Jul-02 02:33N 32°06' W 081°07'0 0.0
2015-Jul-02 01:33N 32°06' W 081°07'0 0.0
2015-Jul-02 00:33N 32°06' W 081°07'0 0.0
2015-Jul-01 23:33N 32°06' W 081°07'0 0.0
2015-Jul-01 22:33N 32°06' W 081°07'0 0.0
2015-Jul-01 21:33N 32°06' W 081°07'0 0.0
2015-Jul-01 20:33N 32°06' W 081°07'0 0.0
2015-Jul-01 19:33N 32°06' W 081°07'0 0.0
2015-Jul-01 18:33N 32°06' W 081°07'0 0.0
2015-Jul-01 17:33N 32°06' W 081°07'0 0.0
2015-Jul-01 16:33N 32°06' W 081°07'0 0.0
2015-Jul-01 15:33N 32°06' W 081°07'0 0.0
2015-Jul-01 14:33N 32°06' W 081°07'0 0.0
2015-Jul-01 13:33N 32°06' W 081°07'0 0.0
2015-Jul-01 12:33N 32°06' W 081°07'0 0.0
2015-Jul-01 11:33N 32°06' W 081°07'0 0.0
2015-Jul-01 10:33N 32°06' W 081°07'0 0.0
2015-Jul-01 09:33N 32°06' W 081°07'0 0.0
2015-Jul-01 08:33N 32°06' W 081°07'0 0.0
2015-Jul-01 07:33N 32°06' W 081°07'4 4.4
2015-Jul-01 06:33N 32°05' W 081°01'8 7.6
2015-Jul-01 05:33N 32°02' W 080°53'8 7.8
2015-Jul-01 04:33N 31°59' W 080°45'66 2.7
2015-Jun-30 04:29N 32°50' W 079°56'0 0.0
2015-Jun-29 13:17N 32°50' W 079°56'0 0.0
2015-Jun-29 12:32N 32°50' W 079°56'0 0.0
2015-Jun-29 11:18N 32°50' W 079°56'0 0.0
2015-Jun-29 10:33N 32°50' W 079°56'  
2015-Jun-26 10:23N 38°30' W 074°46'8 9.6
2015-Jun-26 09:33N 38°36' W 074°52'9 9.4
2015-Jun-26 08:33N 38°44' W 074°59'9 8.8
2015-Jun-26 07:33N 38°52' W 075°04'8 8.4
2015-Jun-26 06:33N 38°60' W 075°08'3010.0
2015-Jun-26 03:31N 39°24' W 075°30'1010.7
2015-Jun-26 02:32N 39°35' W 075°33'10 9.8
2015-Jun-26 01:33N 39°44' W 075°30'9 9.3
2015-Jun-26 00:33N 39°50' W 075°21'6 5.9
2015-Jun-25 23:34N 39°51' W 075°14'0 0.0
2015-Jun-25 22:30N 39°51' W 075°14'0 0.0
2015-Jun-25 21:31N 39°51' W 075°14'0 0.0
2015-Jun-25 20:31N 39°51' W 075°14'0 0.0
2015-Jun-25 19:33N 39°51' W 075°14'0 0.0
2015-Jun-25 18:34N 39°51' W 075°14'0 0.0
2015-Jun-25 17:34N 39°51' W 075°14'0 0.0
2015-Jun-25 16:30N 39°51' W 075°14'0 0.0
2015-Jun-25 15:31N 39°51' W 075°14'0 0.0
2015-Jun-25 14:31N 39°51' W 075°14'0 0.0
2015-Jun-25 13:34N 39°51' W 075°14'0 0.0
2015-Jun-25 12:34N 39°51' W 075°14'0 0.0
2015-Jun-25 11:33N 39°51' W 075°14'0 0.0
2015-Jun-25 10:33N 39°51' W 075°14'0 0.0
2015-Jun-25 09:33N 39°51' W 075°14'0 0.0
2015-Jun-25 08:33N 39°51' W 075°14'0 0.0
2015-Jun-25 07:33N 39°51' W 075°14'0 0.0
2015-Jun-25 06:33N 39°51' W 075°14'0 0.0
2015-Jun-25 05:34N 39°51' W 075°14'0 0.0
2015-Jun-25 04:33N 39°51' W 075°14'0 0.0
2015-Jun-25 03:33N 39°51' W 075°14'0 0.0
2015-Jun-25 02:34N 39°51' W 075°14'0 0.0
2015-Jun-25 01:33N 39°51' W 075°14'0 0.0
2015-Jun-25 00:34N 39°51' W 075°14'0 0.0
2015-Jun-24 23:34N 39°51' W 075°14'0 0.0
2015-Jun-24 22:34N 39°51' W 075°14'0 0.0
2015-Jun-24 21:34N 39°51' W 075°14'3 2.9
2015-Jun-24 20:34N 39°53' W 075°11'0 0.1
2015-Jun-24 19:34N 39°53' W 075°11'0 0.1
2015-Jun-24 18:34N 39°53' W 075°11'0 0.0
2015-Jun-24 17:34N 39°53' W 075°11'3 2.8
2015-Jun-24 16:34N 39°51' W 075°14'3 2.8
2015-Jun-24 15:33N 39°54' W 075°12'0 0.0
2015-Jun-24 14:34N 39°54' W 075°12'0 0.0
2015-Jun-24 13:34N 39°54' W 075°12'0 0.0
2015-Jun-24 12:34N 39°54' W 075°12'0 0.0
2015-Jun-24 11:34N 39°54' W 075°12'3 2.8
2015-Jun-24 10:34N 39°51' W 075°14'0 0.0
2015-Jun-24 09:34N 39°51' W 075°14'0 0.0
2015-Jun-24 08:34N 39°51' W 075°14'0 0.0
2015-Jun-24 07:34N 39°51' W 075°14'0 0.0
2015-Jun-24 06:34N 39°51' W 075°14'0 0.0
2015-Jun-24 05:34N 39°51' W 075°14'0 0.0
2015-Jun-24 04:34N 39°51' W 075°14'0 0.0
2015-Jun-24 03:34N 39°51' W 075°14'0 0.0
2015-Jun-24 02:34N 39°51' W 075°14'0 0.0
2015-Jun-24 01:34N 39°51' W 075°14'0 0.0
2015-Jun-24 00:34N 39°51' W 075°14'0 0.0
2015-Jun-23 23:34N 39°51' W 075°14'2 2.2
2015-Jun-23 22:34N 39°51' W 075°17'9 8.5
2015-Jun-23 21:33N 39°47' W 075°27'9 8.9
2015-Jun-23 20:34N 39°40' W 075°32'9 9.4
2015-Jun-23 19:34N 39°30' W 075°33'510.9
2015-Jun-23 19:06N 39°25' W 075°31'  

Dump ship's entire track history